createdAt,value
2023-12-14T00:01:17.836Z,21.87
2023-12-14T00:03:45.714Z,18.17
2023-12-14T00:06:13.322Z,20.77
2023-12-14T00:08:40.926Z,23.35
2023-12-14T00:11:09.393Z,22.57
2023-12-14T00:13:36.931Z,22.90
2023-12-14T00:16:04.677Z,20.55
2023-12-14T00:18:32.398Z,27.85
2023-12-14T00:20:59.838Z,23.12
2023-12-14T00:23:27.647Z,28.33
2023-12-14T00:25:55.400Z,25.08
2023-12-14T00:28:25.285Z,25.95
2023-12-14T00:30:54.246Z,22.47
2023-12-14T00:33:21.973Z,23.73
2023-12-14T00:35:49.398Z,26.45
2023-12-14T00:38:16.865Z,23.45
2023-12-14T00:40:44.597Z,26.58
2023-12-14T00:43:12.065Z,23.73
2023-12-14T00:45:39.504Z,24.52
2023-12-14T00:48:07.231Z,26.83
2023-12-14T00:50:34.698Z,28.50
2023-12-14T00:53:02.135Z,30.92
2023-12-14T00:55:29.836Z,26.25
2023-12-14T00:57:57.271Z,33.58
2023-12-14T01:00:24.665Z,25.88
2023-12-14T01:02:52.285Z,26.27
2023-12-14T01:05:19.785Z,26.98
2023-12-14T01:07:47.287Z,23.87
2023-12-14T01:10:15.205Z,25.25
2023-12-14T01:12:42.624Z,25.45
2023-12-14T01:15:10.463Z,26.25
2023-12-14T01:17:38.916Z,33.72
2023-12-14T01:20:08.214Z,28.90
2023-12-14T01:22:36.014Z,32.20
2023-12-14T01:25:04.236Z,32.13
2023-12-14T01:27:31.744Z,28.83
2023-12-14T01:29:59.250Z,33.73
2023-12-14T01:32:27.100Z,32.67
2023-12-14T01:34:54.629Z,33.63
2023-12-14T01:37:22.041Z,33.23
2023-12-14T01:39:49.684Z,30.13
2023-12-14T01:42:17.095Z,31.33
2023-12-14T01:44:44.501Z,29.25
2023-12-14T01:47:12.340Z,35.63
2023-12-14T01:49:40.259Z,34.92
2023-12-14T01:52:07.867Z,30.47
2023-12-14T01:54:35.529Z,34.17
2023-12-14T01:57:02.923Z,28.37
2023-12-14T01:59:30.315Z,29.03
2023-12-14T02:01:58.323Z,30.17
2023-12-14T02:04:29.013Z,31.33
2023-12-14T02:06:56.482Z,28.87
2023-12-14T02:09:23.958Z,27.83
2023-12-14T02:11:51.683Z,29.55
2023-12-14T02:14:19.171Z,30.10
2023-12-14T02:16:46.557Z,32.35
2023-12-14T02:19:14.250Z,32.80
2023-12-14T02:21:41.661Z,32.30
2023-12-14T02:24:09.026Z,34.50
2023-12-14T02:26:36.693Z,35.67
2023-12-14T02:29:04.143Z,35.23
2023-12-14T02:31:31.828Z,32.53
2023-12-14T02:33:59.562Z,30.75
2023-12-14T02:36:27.067Z,26.25
2023-12-14T02:38:54.544Z,28.20
2023-12-14T02:41:22.210Z,29.67
2023-12-14T02:43:49.605Z,26.50
2023-12-14T02:46:17.104Z,28.85
2023-12-14T02:48:44.951Z,25.05
2023-12-14T02:51:18.478Z,24.02
2023-12-14T02:53:46.128Z,22.10
2023-12-14T02:56:13.826Z,25.98
2023-12-14T02:58:41.418Z,30.83
2023-12-14T03:01:09.274Z,21.25
2023-12-14T03:03:39.883Z,26.77
2023-12-14T03:06:07.466Z,28.55
2023-12-14T03:08:35.170Z,26.05
2023-12-14T03:11:02.625Z,28.25
2023-12-14T03:13:30.052Z,32.13
2023-12-14T03:15:57.794Z,33.33
2023-12-14T03:18:25.321Z,26.50
2023-12-14T03:20:52.747Z,30.35
2023-12-14T03:23:20.424Z,29.92
2023-12-14T03:25:47.900Z,25.37
2023-12-14T03:28:15.326Z,25.52
2023-12-14T03:30:43.078Z,25.08
2023-12-14T03:33:10.661Z,24.60
2023-12-14T03:35:38.208Z,25.77
2023-12-14T03:38:06.116Z,21.92
2023-12-14T03:40:33.690Z,23.77
2023-12-14T03:43:01.137Z,23.08
2023-12-14T03:45:28.798Z,23.40
2023-12-14T03:47:56.207Z,23.50
2023-12-14T03:50:23.887Z,23.20
2023-12-14T03:52:51.629Z,25.25
2023-12-14T03:55:19.097Z,25.55
2023-12-14T03:57:46.551Z,25.73
2023-12-14T04:00:14.618Z,26.33
2023-12-14T04:02:42.306Z,22.13
2023-12-14T04:05:10.418Z,25.20
2023-12-14T04:07:40.724Z,26.98
2023-12-14T04:10:09.930Z,25.02
2023-12-14T04:12:37.802Z,29.40
2023-12-14T04:15:05.827Z,26.75
2023-12-14T04:17:33.778Z,29.92
2023-12-14T04:20:01.450Z,28.85
2023-12-14T04:22:28.960Z,34.42
2023-12-14T04:24:56.673Z,29.10
2023-12-14T04:27:28.197Z,27.85
2023-12-14T04:29:55.690Z,31.92
2023-12-14T04:32:23.350Z,27.80
2023-12-14T04:34:50.787Z,31.52
2023-12-14T04:37:18.209Z,35.03
2023-12-14T04:39:46.180Z,30.37
2023-12-14T04:42:13.617Z,31.10
2023-12-14T04:44:41.040Z,37.00
2023-12-14T04:47:09.729Z,35.13
2023-12-14T04:49:37.376Z,30.60
2023-12-14T04:52:05.558Z,36.45
2023-12-14T04:54:33.272Z,36.85
2023-12-14T04:57:00.656Z,38.95
2023-12-14T04:59:28.082Z,38.60
2023-12-14T05:01:55.931Z,31.92
2023-12-14T05:04:23.336Z,35.05
2023-12-14T05:06:50.759Z,35.05
2023-12-14T05:09:18.472Z,35.83
2023-12-14T05:11:45.906Z,35.60
2023-12-14T05:14:13.380Z,36.78
2023-12-14T05:16:41.179Z,37.58
2023-12-14T05:19:08.683Z,38.00
2023-12-14T05:21:36.157Z,37.92
2023-12-14T05:24:04.163Z,36.67
2023-12-14T05:26:31.633Z,38.10
2023-12-14T05:28:59.202Z,39.97
2023-12-14T05:31:27.072Z,38.25
2023-12-14T05:33:54.633Z,38.03
2023-12-14T05:36:22.238Z,35.75
2023-12-14T05:38:49.964Z,41.92
2023-12-14T05:41:17.441Z,39.90
2023-12-14T05:43:45.036Z,41.88
2023-12-14T05:46:21.975Z,38.67
2023-12-14T05:51:28.360Z,37.75
2023-12-14T05:53:56.051Z,43.10
2023-12-14T05:56:23.966Z,42.78
2023-12-14T05:58:51.420Z,42.38
2023-12-14T06:01:19.549Z,38.92
2023-12-14T06:03:47.796Z,39.08
2023-12-14T06:06:15.788Z,38.42
2023-12-14T06:08:43.350Z,38.58
2023-12-14T06:11:11.063Z,34.70
2023-12-14T06:13:39.019Z,40.72
2023-12-14T06:16:07.988Z,35.22
2023-12-14T06:18:35.752Z,37.83
2023-12-14T06:21:03.343Z,37.22
2023-12-14T06:23:30.752Z,34.65
2023-12-14T06:25:59.640Z,35.90
2023-12-14T06:28:27.044Z,35.17
2023-12-14T06:30:54.471Z,34.90
2023-12-14T06:33:22.717Z,38.30
2023-12-14T06:35:50.205Z,36.15
2023-12-14T06:38:17.779Z,34.35
2023-12-14T06:40:45.609Z,33.77
2023-12-14T06:43:13.039Z,39.03
2023-12-14T06:45:40.480Z,33.30
2023-12-14T06:48:08.324Z,35.47
2023-12-14T06:50:35.847Z,34.63
2023-12-14T06:53:03.587Z,36.72
2023-12-14T06:55:31.403Z,37.50
2023-12-14T06:57:58.855Z,38.63
2023-12-14T07:00:26.267Z,42.85
2023-12-14T07:02:54.030Z,34.75
2023-12-14T07:05:21.951Z,31.23
2023-12-14T07:07:49.758Z,31.75
2023-12-14T07:10:17.950Z,32.13
2023-12-14T07:12:45.487Z,32.22
2023-12-14T07:15:12.863Z,32.65
2023-12-14T07:17:41.074Z,30.65
2023-12-14T07:20:09.076Z,33.22
2023-12-14T07:22:36.738Z,29.35
2023-12-14T07:25:05.198Z,31.15
2023-12-14T07:27:32.646Z,35.60
2023-12-14T07:30:00.053Z,29.65
2023-12-14T07:32:28.144Z,30.50
2023-12-14T07:34:56.248Z,35.28
2023-12-14T07:37:23.712Z,32.15
2023-12-14T07:39:51.442Z,30.90
2023-12-14T07:42:21.234Z,34.20
2023-12-14T07:44:48.626Z,31.65
2023-12-14T07:47:16.440Z,32.15
2023-12-14T07:49:44.027Z,29.45
2023-12-14T07:52:11.477Z,30.23
2023-12-14T07:54:39.199Z,29.98
2023-12-14T07:57:06.677Z,32.38
2023-12-14T07:59:34.194Z,32.35
2023-12-14T08:02:01.994Z,27.77
2023-12-14T08:04:29.812Z,27.83
2023-12-14T08:06:57.732Z,29.92
2023-12-14T08:09:25.285Z,29.15
2023-12-14T08:11:53.611Z,31.25
2023-12-14T08:14:21.193Z,30.65
2023-12-14T08:16:48.707Z,29.95
2023-12-14T08:19:16.499Z,30.92
2023-12-14T08:21:43.931Z,30.45
2023-12-14T08:24:11.352Z,29.73
2023-12-14T08:26:39.042Z,34.15
2023-12-14T08:29:06.461Z,31.77
2023-12-14T08:31:33.931Z,31.80
2023-12-14T08:34:02.144Z,28.83
2023-12-14T08:36:29.627Z,31.25
2023-12-14T08:38:57.003Z,30.10
2023-12-14T08:41:24.795Z,30.50
2023-12-14T08:43:52.364Z,28.90
2023-12-14T08:46:19.863Z,31.37
2023-12-14T08:48:48.042Z,30.90
2023-12-14T08:51:15.478Z,27.55
2023-12-14T08:53:46.428Z,24.90
2023-12-14T08:56:14.142Z,30.17
2023-12-14T08:58:41.650Z,25.98
2023-12-14T09:01:09.150Z,29.85
2023-12-14T09:03:36.958Z,26.85
2023-12-14T09:06:06.582Z,27.23
2023-12-14T09:08:34.221Z,28.98
2023-12-14T09:11:01.976Z,24.73
2023-12-14T09:13:29.436Z,25.70
2023-12-14T09:15:56.933Z,22.42
2023-12-14T09:18:25.294Z,25.77
2023-12-14T09:20:52.757Z,24.95
2023-12-14T09:23:20.492Z,23.80
2023-12-14T09:25:52.021Z,26.37
2023-12-14T09:28:19.511Z,22.02
2023-12-14T09:30:46.991Z,21.87
2023-12-14T09:33:17.500Z,22.55
2023-12-14T09:35:45.132Z,22.73
2023-12-14T09:38:15.062Z,21.00
2023-12-14T09:40:45.251Z,21.65
2023-12-14T09:43:15.090Z,24.02
2023-12-14T09:45:46.472Z,22.25
2023-12-14T09:48:14.244Z,24.40
2023-12-14T09:50:42.204Z,25.55
2023-12-14T09:53:09.898Z,21.48
2023-12-14T09:55:37.382Z,21.30
2023-12-14T09:58:04.854Z,19.83
2023-12-14T10:00:39.281Z,20.75
2023-12-14T10:03:23.864Z,21.83
2023-12-14T10:05:51.630Z,22.05
2023-12-14T10:08:19.737Z,18.12
2023-12-14T10:10:50.322Z,19.70
2023-12-14T10:13:17.937Z,22.35
2023-12-14T10:15:46.465Z,24.10
2023-12-14T10:18:22.417Z,24.63
2023-12-14T10:20:50.168Z,19.85
2023-12-14T10:23:17.727Z,20.95
2023-12-14T10:25:45.280Z,21.98
2023-12-14T10:28:16.405Z,20.60
2023-12-14T10:30:43.919Z,23.92
2023-12-14T10:33:11.530Z,22.50
2023-12-14T10:35:39.379Z,21.40
2023-12-14T10:38:06.900Z,21.73
2023-12-14T10:40:34.365Z,23.30
2023-12-14T10:43:02.342Z,23.15
2023-12-14T10:45:31.254Z,24.23
2023-12-14T10:48:00.081Z,22.02
2023-12-14T10:50:32.537Z,20.65
2023-12-14T10:53:00.346Z,25.83
2023-12-14T10:55:44.416Z,22.10
2023-12-14T10:58:12.070Z,25.33
2023-12-14T11:00:39.968Z,24.75
2023-12-14T11:03:07.454Z,24.70
2023-12-14T11:05:35.490Z,22.40
2023-12-14T11:08:11.438Z,23.52
2023-12-14T11:10:53.965Z,22.05
2023-12-14T11:13:21.728Z,24.27
2023-12-14T11:15:51.363Z,20.88
2023-12-14T11:18:19.110Z,20.73
2023-12-14T11:20:47.107Z,19.77
2023-12-14T11:23:19.177Z,18.98
2023-12-14T11:25:55.417Z,20.65
2023-12-14T11:28:26.730Z,20.12
2023-12-14T11:30:56.474Z,23.25
2023-12-14T11:33:24.904Z,22.05
2023-12-14T11:35:53.818Z,20.77
2023-12-14T11:38:22.887Z,20.98
2023-12-14T11:40:51.608Z,21.45
2023-12-14T11:43:22.020Z,20.90
2023-12-14T11:45:50.590Z,19.25
2023-12-14T11:48:18.563Z,19.08
2023-12-14T11:50:46.561Z,19.98
2023-12-14T11:53:15.033Z,17.80
2023-12-14T11:55:43.077Z,19.70
2023-12-14T11:58:12.762Z,20.75
2023-12-14T12:00:41.257Z,19.62
2023-12-14T12:03:09.917Z,18.60
2023-12-14T12:05:48.034Z,19.35
2023-12-14T12:08:16.555Z,19.25
2023-12-14T12:10:44.669Z,18.27
2023-12-14T12:13:17.023Z,19.80
2023-12-14T12:15:44.901Z,19.08
2023-12-14T12:18:14.165Z,16.90
2023-12-14T12:20:41.789Z,20.25
2023-12-14T12:23:11.173Z,21.42
2023-12-14T12:25:38.665Z,21.98
2023-12-14T12:28:06.236Z,22.23
2023-12-14T12:30:35.551Z,21.05
2023-12-14T12:33:04.698Z,22.27
2023-12-14T12:35:34.167Z,20.85
2023-12-14T12:38:02.678Z,21.37
2023-12-14T12:40:32.248Z,19.37
2023-12-14T12:42:59.812Z,19.77
2023-12-14T12:45:29.502Z,18.85
2023-12-14T12:47:57.378Z,23.73
2023-12-14T12:50:25.461Z,22.52
2023-12-14T12:52:53.349Z,19.95
2023-12-14T12:55:20.808Z,23.60
2023-12-14T12:57:49.375Z,24.60
2023-12-14T13:00:17.629Z,24.27
2023-12-14T13:02:48.217Z,21.55
2023-12-14T13:05:18.131Z,24.98
2023-12-14T13:07:47.122Z,23.35
2023-12-14T13:10:25.391Z,30.50
2023-12-14T13:13:00.921Z,27.95
2023-12-14T13:15:30.405Z,51.65
2023-12-14T13:17:58.618Z,22.15
2023-12-14T13:20:26.487Z,22.30
2023-12-14T13:22:54.534Z,21.67
2023-12-14T13:25:24.381Z,21.85
2023-12-14T13:27:52.019Z,20.30
2023-12-14T13:30:20.420Z,23.33
2023-12-14T13:32:47.982Z,25.62
2023-12-14T13:35:15.809Z,29.67
2023-12-14T13:37:43.320Z,23.95
2023-12-14T13:40:13.839Z,25.60
2023-12-14T13:42:50.931Z,21.90
2023-12-14T13:45:31.530Z,22.40
2023-12-14T13:48:00.251Z,31.95
2023-12-14T13:50:29.078Z,22.25
2023-12-14T13:52:57.178Z,22.62
2023-12-14T13:55:25.025Z,23.25
2023-12-14T13:57:52.571Z,22.25
2023-12-14T14:00:20.477Z,24.85
2023-12-14T14:02:48.163Z,23.20
2023-12-14T14:05:15.828Z,24.02
2023-12-14T14:07:43.360Z,28.08
2023-12-14T14:10:11.276Z,28.05
2023-12-14T14:12:39.161Z,26.25
2023-12-14T14:15:07.720Z,24.40
2023-12-14T14:17:35.731Z,22.92
2023-12-14T14:20:03.747Z,24.65
2023-12-14T14:22:31.198Z,27.83
2023-12-14T14:24:58.916Z,24.50
2023-12-14T14:27:26.290Z,25.48
2023-12-14T14:29:56.760Z,22.10
2023-12-14T14:32:24.616Z,24.52
2023-12-14T14:34:52.340Z,21.52
2023-12-14T14:37:19.836Z,19.10
2023-12-14T14:39:47.489Z,20.75
2023-12-14T14:42:14.948Z,20.40
2023-12-14T14:44:42.405Z,23.87
2023-12-14T14:47:10.459Z,24.23
2023-12-14T14:49:37.840Z,25.42
2023-12-14T14:52:05.453Z,23.27
2023-12-14T14:54:33.105Z,22.70
2023-12-14T14:57:00.513Z,24.77
2023-12-14T14:59:28.080Z,22.87
2023-12-14T15:01:56.936Z,22.00
2023-12-14T15:04:24.496Z,23.00
2023-12-14T15:06:51.922Z,23.65
2023-12-14T15:09:19.626Z,25.55
2023-12-14T15:11:47.003Z,26.25
2023-12-14T15:14:14.415Z,25.25
2023-12-14T15:16:42.177Z,29.70
2023-12-14T15:19:09.951Z,26.37
2023-12-14T15:21:37.381Z,25.80
2023-12-14T15:24:05.262Z,24.25
2023-12-14T15:26:33.784Z,25.60
2023-12-14T15:29:01.217Z,25.85
2023-12-14T15:31:28.877Z,28.98
2023-12-14T15:33:56.357Z,27.52
2023-12-14T15:36:23.932Z,27.08
2023-12-14T15:38:51.645Z,27.37
2023-12-14T15:41:19.253Z,23.58
2023-12-14T15:43:46.753Z,25.35
2023-12-14T15:46:14.861Z,26.62
2023-12-14T15:48:43.323Z,25.60
2023-12-14T15:51:10.759Z,30.83
2023-12-14T15:53:38.505Z,26.80
2023-12-14T15:56:06.636Z,24.87
2023-12-14T15:58:34.101Z,39.70
2023-12-14T16:01:01.827Z,30.88
2023-12-14T16:03:29.620Z,30.33
2023-12-14T16:05:57.250Z,26.50
2023-12-14T16:08:24.771Z,27.65
2023-12-14T16:10:54.612Z,26.95
2023-12-14T16:13:22.143Z,28.40
2023-12-14T16:15:49.587Z,29.92
2023-12-14T16:18:17.307Z,30.77
2023-12-14T16:20:44.779Z,28.02
2023-12-14T16:23:12.261Z,29.87
2023-12-14T16:25:39.946Z,25.40
2023-12-14T16:28:07.331Z,27.58
2023-12-14T16:30:34.790Z,28.77
2023-12-14T16:33:02.602Z,29.40
2023-12-14T16:35:31.418Z,25.83
2023-12-14T16:37:58.988Z,27.37
2023-12-14T16:40:26.675Z,32.42
2023-12-14T16:42:54.191Z,28.75
2023-12-14T16:45:21.733Z,29.55
2023-12-14T16:47:49.395Z,28.90
2023-12-14T16:50:16.971Z,32.35
2023-12-14T16:52:44.460Z,32.55
2023-12-14T16:55:12.213Z,35.50
2023-12-14T16:57:39.615Z,32.70
2023-12-14T17:00:07.610Z,29.48
2023-12-14T17:02:35.617Z,29.25
2023-12-14T17:05:04.707Z,33.50
2023-12-14T17:07:32.261Z,30.02
2023-12-14T17:09:59.954Z,33.00
2023-12-14T17:12:27.333Z,29.52
2023-12-14T17:14:55.008Z,32.50
2023-12-14T17:17:23.042Z,32.85
2023-12-14T17:19:50.588Z,29.45
2023-12-14T17:22:18.045Z,31.12
2023-12-14T17:24:45.737Z,35.13
2023-12-14T17:27:13.210Z,31.87
2023-12-14T17:29:40.593Z,29.55
2023-12-14T17:32:08.442Z,34.38
2023-12-14T17:34:36.146Z,31.62
2023-12-14T17:37:03.772Z,32.17
2023-12-14T17:39:31.648Z,30.23
2023-12-14T17:41:59.119Z,31.90
2023-12-14T17:44:26.671Z,30.58
2023-12-14T17:46:54.388Z,29.75
2023-12-14T17:49:22.127Z,32.95
2023-12-14T17:51:49.609Z,27.98
2023-12-14T17:54:18.257Z,30.27
2023-12-14T17:56:46.340Z,31.17
2023-12-14T17:59:13.797Z,30.90
2023-12-14T18:01:46.442Z,32.60
2023-12-14T18:04:14.674Z,30.35
2023-12-14T18:06:45.269Z,30.48
2023-12-14T18:09:12.683Z,27.60
2023-12-14T18:11:40.545Z,31.45
2023-12-14T18:14:08.250Z,33.13
2023-12-14T18:16:39.807Z,32.08
2023-12-14T18:19:08.017Z,28.85
2023-12-14T18:21:35.816Z,28.80
2023-12-14T18:24:04.791Z,30.58
2023-12-14T18:26:32.572Z,29.67
2023-12-14T18:29:00.064Z,27.73
2023-12-14T18:31:27.553Z,31.17
2023-12-14T18:33:55.416Z,29.98
2023-12-14T18:36:24.414Z,32.13
2023-12-14T18:38:51.880Z,27.80
2023-12-14T18:41:19.604Z,35.95
2023-12-14T18:43:47.183Z,36.00
2023-12-14T18:46:14.662Z,33.30
2023-12-14T18:48:43.583Z,29.48
2023-12-14T18:51:11.645Z,29.05
2023-12-14T18:53:39.087Z,35.53
2023-12-14T18:56:07.227Z,30.50
2023-12-14T18:58:34.669Z,33.55
2023-12-14T19:01:04.027Z,31.50
2023-12-14T19:03:31.836Z,26.48
2023-12-14T19:05:59.532Z,27.62
2023-12-14T19:08:27.058Z,27.20
2023-12-14T19:10:54.766Z,26.37
2023-12-14T19:13:22.603Z,31.30
2023-12-14T19:15:50.193Z,31.25
2023-12-14T19:18:17.999Z,37.03
2023-12-14T19:20:45.467Z,47.75
2023-12-14T19:23:12.893Z,29.80
2023-12-14T19:25:40.671Z,32.38
2023-12-14T19:28:08.068Z,32.92
2023-12-14T19:30:35.618Z,31.87
2023-12-14T19:33:03.439Z,31.45
2023-12-14T19:35:31.058Z,37.15
2023-12-14T19:37:58.552Z,27.05
2023-12-14T19:40:26.392Z,29.05
2023-12-14T19:42:53.798Z,30.60
2023-12-14T19:45:21.219Z,27.62
2023-12-14T19:47:48.916Z,27.45
2023-12-14T19:50:16.538Z,28.10
2023-12-14T19:52:44.061Z,30.02
2023-12-14T19:55:13.253Z,28.42
2023-12-14T19:57:41.022Z,30.27
2023-12-14T20:00:12.327Z,29.17
2023-12-14T20:02:40.128Z,30.43
2023-12-14T20:05:08.102Z,30.33
2023-12-14T20:07:35.862Z,32.00
2023-12-14T20:10:04.766Z,29.97
2023-12-14T20:12:32.777Z,29.02
2023-12-14T20:15:00.369Z,28.27
2023-12-14T20:17:28.241Z,28.87
2023-12-14T20:19:55.767Z,31.80
2023-12-14T20:22:23.354Z,31.70
2023-12-14T20:24:51.120Z,30.50
2023-12-14T20:27:18.549Z,31.20
2023-12-14T20:29:46.224Z,27.58
2023-12-14T20:32:13.988Z,31.77
2023-12-14T20:34:41.404Z,31.53
2023-12-14T20:37:08.893Z,28.93
2023-12-14T20:39:36.620Z,30.20
2023-12-14T20:42:04.117Z,29.70
2023-12-14T20:44:31.568Z,31.70
2023-12-14T20:46:59.298Z,30.40
2023-12-14T20:49:26.884Z,35.40
2023-12-14T20:51:54.389Z,28.60
2023-12-14T20:54:22.080Z,32.67
2023-12-14T20:56:49.472Z,33.20
2023-12-14T20:59:16.926Z,29.03
2023-12-14T21:01:44.612Z,32.17
2023-12-14T21:04:12.049Z,30.50
2023-12-14T21:06:39.471Z,32.50
2023-12-14T21:09:07.201Z,30.37
2023-12-14T21:11:34.624Z,33.20
2023-12-14T21:14:01.995Z,30.03
2023-12-14T21:16:29.720Z,33.73
2023-12-14T21:18:57.533Z,33.47
2023-12-14T21:21:25.016Z,29.40
2023-12-14T21:23:52.763Z,31.80
2023-12-14T21:26:21.923Z,36.37
2023-12-14T21:28:49.352Z,33.97
2023-12-14T21:31:17.087Z,30.87
2023-12-14T21:33:44.585Z,40.27
2023-12-14T21:36:12.186Z,33.23
2023-12-14T21:38:40.621Z,31.98
2023-12-14T21:41:08.072Z,32.63
2023-12-14T21:43:35.569Z,34.30
2023-12-14T21:46:03.430Z,35.75
2023-12-14T21:48:30.921Z,31.42
2023-12-14T21:50:58.448Z,37.22
2023-12-14T21:53:26.375Z,33.80
2023-12-14T21:55:53.890Z,35.88
2023-12-14T21:58:21.681Z,31.48
2023-12-14T22:00:49.389Z,32.97
2023-12-14T22:03:17.846Z,34.22
2023-12-14T22:05:45.410Z,32.90
2023-12-14T22:08:12.906Z,31.42
2023-12-14T22:10:46.377Z,28.85
2023-12-14T22:13:13.793Z,34.88
2023-12-14T22:15:41.483Z,33.88
2023-12-14T22:18:10.058Z,33.92
2023-12-14T22:20:37.710Z,35.05
2023-12-14T22:23:05.516Z,31.58
2023-12-14T22:25:32.965Z,31.90
2023-12-14T22:28:00.346Z,32.65
2023-12-14T22:30:28.024Z,32.67
2023-12-14T22:32:55.487Z,29.10
2023-12-14T22:35:22.959Z,29.73
2023-12-14T22:37:50.692Z,30.77
2023-12-14T22:40:18.198Z,28.38
2023-12-14T22:42:45.698Z,29.83
2023-12-14T22:45:13.611Z,32.63
2023-12-14T22:47:41.427Z,30.20
2023-12-14T22:50:10.410Z,29.98
2023-12-14T22:52:38.169Z,33.42
2023-12-14T22:55:05.730Z,32.78
2023-12-14T22:57:33.123Z,35.75
2023-12-14T23:00:00.925Z,35.40
2023-12-14T23:02:28.747Z,38.88
2023-12-14T23:04:56.273Z,35.15
2023-12-14T23:07:24.032Z,36.35
2023-12-14T23:09:51.411Z,33.47
2023-12-14T23:12:20.706Z,37.25
2023-12-14T23:14:49.106Z,37.72
2023-12-14T23:17:16.588Z,32.72
2023-12-14T23:19:44.082Z,37.60
2023-12-14T23:22:11.715Z,38.53
2023-12-14T23:24:39.174Z,36.28
2023-12-14T23:27:06.653Z,34.90
2023-12-14T23:29:34.301Z,40.50
2023-12-14T23:32:01.733Z,36.33
2023-12-14T23:34:29.198Z,39.00
2023-12-14T23:36:56.877Z,32.80
2023-12-14T23:39:24.261Z,31.75
2023-12-14T23:41:51.693Z,32.60
2023-12-14T23:44:19.426Z,38.10
2023-12-14T23:46:46.901Z,37.33
2023-12-14T23:49:14.374Z,37.42
2023-12-14T23:51:42.125Z,34.92
2023-12-14T23:54:09.529Z,34.00
2023-12-14T23:56:36.962Z,37.63
2023-12-14T23:59:04.690Z,37.55
